Time;durP1;ratioP1;P1;durP2;ratioP2;P2;SDS_P1;SDS_P2;PMS_P1;PMS_P2;Temp;Humidity;BMP_temperature;BMP_pressure;BME280_temperature;BME280_humidity;BME280_pressure;Samples;Min_cycle;Max_cycle;Signal;HPM_P1;HPM_P2
2020/12/24 00:00:15;;;;;;;2.13;0.70;;;;;;;7.62;70.81;95074.66;5054143;28;20177;-76
2020/12/24 00:02:40;;;;;;;3.30;0.70;;;;;;;7.65;69.70;95095.84;5068483;28;20723;-75
2020/12/24 00:05:06;;;;;;;1.10;0.57;;;;;;;7.61;70.25;95084.16;5049862;28;20247;-75
2020/12/24 00:07:31;;;;;;;2.57;0.80;;;;;;;7.58;71.24;95097.34;5071938;28;20181;-75
2020/12/24 00:09:56;;;;;;;1.37;0.70;;;;;;;7.52;72.22;95110.03;5053734;28;20208;-77
2020/12/24 00:12:22;;;;;;;1.53;0.70;;;;;;;7.49;72.41;95111.09;5071921;28;20205;-76
2020/12/24 00:14:47;;;;;;;0.83;0.70;;;;;;;7.48;73.41;95108.66;5051035;28;20212;-76
2020/12/24 00:17:12;;;;;;;2.03;0.77;;;;;;;7.41;73.50;95116.16;5037092;28;20686;-77
2020/12/24 00:19:37;;;;;;;2.17;0.97;;;;;;;7.36;74.36;95132.06;5071436;28;20739;-76
2020/12/24 00:22:03;;;;;;;1.03;0.63;;;;;;;7.28;75.29;95121.63;5071137;28;20165;-76
2020/12/24 00:24:28;;;;;;;1.00;0.80;;;;;;;7.26;76.39;95143.38;5051862;28;20209;-76
2020/12/24 00:26:53;;;;;;;1.00;0.57;;;;;;;7.24;76.48;95134.94;5071687;28;20169;-76
2020/12/24 00:29:19;;;;;;;1.70;0.73;;;;;;;7.16;77.41;95121.91;5071450;28;20204;-76
2020/12/24 00:31:44;;;;;;;1.30;0.70;;;;;;;7.08;77.79;95120.81;5053649;28;20201;-76
2020/12/24 00:34:09;;;;;;;1.73;0.60;;;;;;;6.95;78.41;95117.69;5071419;28;20207;-77
2020/12/24 00:36:35;;;;;;;2.73;0.70;;;;;;;6.94;77.82;95094.59;5051611;28;20238;-76
2020/12/24 00:39:00;;;;;;;0.83;0.40;;;;;;;6.95;74.39;95076.38;5053383;28;20185;-76
2020/12/24 00:41:26;;;;;;;0.80;0.53;;;;;;;6.95;75.62;95091.06;5053728;28;20599;-76
2020/12/24 00:43:51;;;;;;;2.80;0.40;;;;;;;6.86;74.89;95110.75;5071727;28;20173;-76
2020/12/24 00:46:17;;;;;;;1.20;0.70;;;;;;;6.77;77.19;95132.22;5068848;28;20275;-76
2020/12/24 00:48:42;;;;;;;2.23;0.50;;;;;;;6.70;77.18;95113.06;5053341;28;20181;-76
2020/12/24 00:51:07;;;;;;;2.50;0.70;;;;;;;6.65;77.67;95084.28;5053660;28;20200;-76
2020/12/24 00:53:33;;;;;;;0.60;0.50;;;;;;;6.59;78.14;95082.22;5053565;28;20938;-76
2020/12/24 00:55:58;;;;;;;2.70;0.60;;;;;;;6.49;78.66;95098.50;5050519;28;20205;-77
2020/12/24 00:58:23;;;;;;;0.67;0.47;;;;;;;6.49;78.59;95090.75;5069738;28;20545;-76
2020/12/24 01:00:49;;;;;;;1.43;0.40;;;;;;;6.43;78.97;95093.06;5071025;28;20180;-76
2020/12/24 01:03:14;;;;;;;1.03;0.47;;;;;;;6.42;79.10;95089.66;5053794;28;20176;-78
2020/12/24 01:05:40;;;;;;;0.60;0.47;;;;;;;6.39;79.25;95092.53;5051526;28;20212;-76
2020/12/24 01:08:05;;;;;;;0.50;0.50;;;;;;;6.33;79.37;95080.16;5066319;28;20182;-78
2020/12/24 01:10:31;;;;;;;0.60;0.40;;;;;;;6.38;79.29;95083.16;5035787;28;20174;-76
2020/12/24 01:12:56;;;;;;;0.30;0.30;;;;;;;6.36;79.72;95092.78;5053502;28;20552;-76
2020/12/24 01:15:22;;;;;;;0.87;0.50;;;;;;;6.35;80.03;95098.88;5067325;28;20218;-76
2020/12/24 01:17:47;;;;;;;0.53;0.50;;;;;;;6.34;79.83;95110.16;5053245;28;20252;-76
2020/12/24 01:20:12;;;;;;;1.00;0.97;;;;;;;6.32;80.03;95114.63;5071031;28;20178;-77
2020/12/24 01:22:38;;;;;;;1.17;0.57;;;;;;;6.31;80.46;95122.50;5053233;28;20207;-76
2020/12/24 01:25:04;;;;;;;0.70;0.40;;;;;;;6.28;80.57;95125.34;5071198;28;20186;-76
2020/12/24 01:27:29;;;;;;;1.10;0.40;;;;;;;6.25;81.13;95134.16;5050988;28;20189;-77
2020/12/24 01:29:54;;;;;;;2.20;0.50;;;;;;;6.24;81.06;95127.34;5036050;28;20189;-76
2020/12/24 01:32:20;;;;;;;1.67;0.67;;;;;;;6.33;80.54;95124.00;5070925;28;20228;-76
2020/12/24 01:34:45;;;;;;;1.27;0.67;;;;;;;6.36;79.93;95118.59;5073920;28;20193;-76
2020/12/24 01:37:10;;;;;;;1.10;0.50;;;;;;;6.33;80.14;95133.50;5051905;28;20190;-77
2020/12/24 01:39:36;;;;;;;0.90;0.60;;;;;;;6.31;80.66;95164.56;5039809;28;20619;-76
2020/12/24 01:42:01;;;;;;;1.77;0.60;;;;;;;6.27;81.39;95188.16;5056948;28;20548;-76
2020/12/24 01:44:26;;;;;;;1.57;0.50;;;;;;;6.25;81.18;95185.72;5056641;28;20703;-76
2020/12/24 01:46:52;;;;;;;1.47;0.63;;;;;;;6.22;81.89;95198.88;5072234;28;20174;-76
2020/12/24 01:49:17;;;;;;;2.87;0.70;;;;;;;6.24;81.97;95195.22;5057392;28;20173;-76
2020/12/24 01:51:53;;;;;;;2.03;0.70;;;;;;;6.11;80.20;95157.72;5074535;28;20201;-77
2020/12/24 01:54:20;;;;;;;4.60;0.77;;;;;;;6.04;79.12;95141.13;5039874;28;20184;-76
2020/12/24 01:56:46;;;;;;;1.60;0.50;;;;;;;5.94;77.86;95154.81;5039900;28;20170;-76
2020/12/24 01:59:15;;;;;;;0.80;0.50;;;;;;;5.87;77.55;95158.78;5052839;28;20322;-76
2020/12/24 02:01:43;;;;;;;1.47;0.60;;;;;;;5.81;77.06;95125.00;5056990;28;20185;-76
2020/12/24 02:04:10;;;;;;;2.80;0.60;;;;;;;5.75;77.00;95115.22;5056374;28;20192;-76
2020/12/24 02:06:35;;;;;;;1.10;0.63;;;;;;;5.74;77.91;95098.91;5073011;28;20590;-76
2020/12/24 02:09:00;;;;;;;1.03;0.60;;;;;;;5.74;77.80;95085.22;5070769;28;20239;-76
2020/12/24 02:11:26;;;;;;;3.17;0.73;;;;;;;5.65;77.05;95084.22;5056054;28;20205;-76
2020/12/24 02:13:51;;;;;;;1.90;0.40;;;;;;;5.63;76.39;95070.66;5074187;28;20185;-76
2020/12/24 02:16:16;;;;;;;4.40;0.83;;;;;;;5.61;75.27;95078.53;5073832;28;20197;-76
2020/12/24 02:18:42;;;;;;;1.37;0.50;;;;;;;5.60;75.52;95070.94;5054969;28;20181;-76
2020/12/24 02:21:07;;;;;;;1.37;0.70;;;;;;;5.50;74.59;95054.63;5054689;28;20189;-76
2020/12/24 02:23:32;;;;;;;2.17;0.60;;;;;;;5.50;74.40;95047.72;5055922;28;20268;-77
2020/12/24 02:25:58;;;;;;;5.03;1.07;;;;;;;5.50;74.82;95052.06;5073842;28;20768;-76
2020/12/24 02:28:23;;;;;;;1.53;0.77;;;;;;;5.41;74.64;95051.06;5055851;28;20196;-76
2020/12/24 02:30:48;;;;;;;2.80;0.60;;;;;;;5.34;75.16;95047.38;5053750;28;20232;-76
2020/12/24 02:33:13;;;;;;;3.10;0.80;;;;;;;5.28;74.84;95053.81;5055643;28;20231;-76
2020/12/24 02:35:39;;;;;;;2.00;0.87;;;;;;;5.23;74.55;95061.13;5039353;28;20283;-76
2020/12/24 02:38:04;;;;;;;1.07;0.80;;;;;;;5.17;75.57;95071.13;5055817;28;20169;-76
2020/12/24 02:40:29;;;;;;;2.90;1.30;;;;;;;5.19;74.97;95071.78;5052168;28;20199;-76
2020/12/24 02:42:55;;;;;;;2.93;0.70;;;;;;;5.14;75.27;95061.91;5066793;28;20197;-76
2020/12/24 02:45:20;;;;;;;1.57;0.60;;;;;;;5.17;74.98;95048.75;5055080;28;20665;-76
2020/12/24 02:47:46;;;;;;;2.93;0.80;;;;;;;5.07;75.89;95032.44;5073525;28;20198;-77
2020/12/24 02:50:11;;;;;;;2.47;1.10;;;;;;;5.11;75.52;95033.81;5073362;28;20188;-76
2020/12/24 02:52:36;;;;;;;5.80;1.23;;;;;;;5.09;75.95;95041.66;5053186;28;20589;-76
2020/12/24 02:55:04;;;;;;;1.23;0.70;;;;;;;5.07;76.58;95037.59;5055199;28;20672;-77
2020/12/24 02:57:29;;;;;;;1.53;0.50;;;;;;;5.02;76.41;95026.84;5055538;28;20611;-76
2020/12/24 02:59:55;;;;;;;1.20;0.40;;;;;;;5.03;76.83;95037.00;5038609;28;20185;-76
2020/12/24 03:02:20;;;;;;;2.10;0.60;;;;;;;5.12;77.21;95038.00;5065723;28;20185;-76
2020/12/24 03:04:45;;;;;;;2.63;0.93;;;;;;;5.11;77.69;95034.63;5055205;28;20193;-76
2020/12/24 03:07:10;;;;;;;4.73;0.60;;;;;;;5.15;77.66;95050.66;5055565;28;20636;-76
2020/12/24 03:09:36;;;;;;;1.80;0.60;;;;;;;5.15;78.07;95034.41;5054966;28;20185;-76
2020/12/24 03:12:01;;;;;;;4.13;0.93;;;;;;;5.08;79.06;95046.94;5054067;28;20284;-76
2020/12/24 03:14:27;;;;;;;0.97;0.60;;;;;;;5.06;78.71;95041.13;5064607;28;20213;-76
2020/12/24 03:16:52;;;;;;;3.63;0.60;;;;;;;5.04;79.31;95028.38;5038404;28;20223;-75
2020/12/24 03:19:17;;;;;;;1.77;0.50;;;;;;;5.05;79.20;95011.19;5037905;28;20272;-76
2020/12/24 03:21:42;;;;;;;1.67;0.80;;;;;;;5.11;77.98;94998.59;5055220;28;20197;-76
2020/12/24 03:24:08;;;;;;;4.07;0.70;;;;;;;5.10;78.34;94991.81;5069327;28;20685;-76
2020/12/24 03:26:33;;;;;;;1.17;0.50;;;;;;;5.01;78.76;94992.59;5072688;28;20679;-76
2020/12/24 03:28:59;;;;;;;2.83;0.50;;;;;;;4.91;79.03;94990.91;5054523;28;20200;-77
2020/12/24 03:31:25;;;;;;;2.00;0.53;;;;;;;4.80;79.33;95005.47;5038115;28;20212;-76
2020/12/24 03:33:52;;;;;;;1.20;0.60;;;;;;;4.82;79.80;95000.19;5067731;28;20189;-76
2020/12/24 03:36:18;;;;;;;1.40;0.80;;;;;;;4.76;79.48;94988.66;5033055;28;20197;-77
2020/12/24 03:38:43;;;;;;;0.93;0.50;;;;;;;4.71;79.05;94985.66;5071021;28;20180;-77
2020/12/24 03:41:09;;;;;;;1.43;0.60;;;;;;;4.83;77.84;94984.63;5054674;28;20661;-76
2020/12/24 03:43:34;;;;;;;1.40;0.50;;;;;;;4.81;77.57;94981.38;5072397;28;20177;-76
2020/12/24 03:45:59;;;;;;;5.03;0.80;;;;;;;4.87;76.82;94990.34;5063214;28;20204;-76
2020/12/24 03:48:25;;;;;;;2.33;0.60;;;;;;;4.86;77.15;94998.19;5054546;28;20231;-76
2020/12/24 03:50:50;;;;;;;6.90;1.17;;;;;;;4.84;77.15;94996.56;5071890;28;20177;-76
2020/12/24 03:53:15;;;;;;;0.93;0.60;;;;;;;4.81;77.42;94996.81;5072261;28;20691;-76
2020/12/24 03:55:41;;;;;;;2.53;1.00;;;;;;;4.89;76.71;94993.63;5051974;28;20235;-76
2020/12/24 03:58:06;;;;;;;1.90;0.70;;;;;;;4.95;76.68;95005.16;5053298;28;20222;-77
2020/12/24 04:00:31;;;;;;;2.60;0.83;;;;;;;4.90;76.82;95005.53;5054000;28;20253;-76
2020/12/24 04:02:57;;;;;;;2.93;0.80;;;;;;;4.95;75.38;95008.56;5054311;28;20222;-76
2020/12/24 04:05:22;;;;;;;4.23;0.73;;;;;;;4.92;75.85;95000.25;5053112;28;20676;-76
2020/12/24 04:07:49;;;;;;;3.83;0.60;;;;;;;4.92;75.64;95000.25;5049586;28;20178;-76
2020/12/24 04:10:14;;;;;;;3.23;0.90;;;;;;;4.83;75.77;94994.91;5050935;28;20709;-77
2020/12/24 04:12:39;;;;;;;3.37;0.80;;;;;;;4.92;75.21;95002.81;5053989;28;20287;-76
2020/12/24 04:15:05;;;;;;;2.30;0.70;;;;;;;4.81;75.89;94989.09;5071769;28;20193;-76
2020/12/24 04:17:30;;;;;;;2.63;0.70;;;;;;;4.77;75.72;94992.03;5052938;28;20226;-76
2020/12/24 04:19:55;;;;;;;2.93;0.80;;;;;;;4.68;76.84;94996.19;5053725;28;20789;-76
2020/12/24 04:22:20;;;;;;;3.23;0.70;;;;;;;4.58;77.75;94987.56;5071883;28;20169;-76
2020/12/24 04:24:46;;;;;;;3.50;0.60;;;;;;;4.44;78.82;95001.56;5071870;28;20235;-76
2020/12/24 04:27:11;;;;;;;5.90;0.80;;;;;;;4.40;79.52;94996.78;5068242;28;20211;-76
2020/12/24 04:29:36;;;;;;;1.27;0.50;;;;;;;4.34;80.10;94994.72;5053348;28;20192;-77
2020/12/24 04:32:02;;;;;;;2.97;0.77;;;;;;;4.27;80.80;94994.38;5071494;28;20201;-76
2020/12/24 04:34:27;;;;;;;2.30;0.70;;;;;;;4.34;80.40;95000.69;5071595;28;20331;-77
2020/12/24 04:36:52;;;;;;;0.70;0.40;;;;;;;4.35;80.39;94994.59;5053797;28;20180;-76
2020/12/24 04:39:19;;;;;;;3.13;0.80;;;;;;;4.42;79.95;95002.63;5065945;28;20196;-76
2020/12/24 04:41:45;;;;;;;3.27;0.90;;;;;;;4.53;79.10;95008.53;5053490;28;20560;-76
2020/12/24 04:44:11;;;;;;;3.37;0.77;;;;;;;4.59;78.42;95001.25;5053796;28;20170;-76
2020/12/24 04:46:37;;;;;;;1.07;0.40;;;;;;;4.53;78.59;95008.53;5071412;28;20637;-76
2020/12/24 04:49:02;;;;;;;1.47;0.60;;;;;;;4.52;78.67;94991.47;5066860;28;20729;-76
2020/12/24 04:51:28;;;;;;;2.53;0.60;;;;;;;4.49;78.96;95001.19;5053398;28;20177;-77
2020/12/24 04:53:53;;;;;;;2.40;0.90;;;;;;;4.44;79.15;94996.44;5053530;28;20173;-76
2020/12/24 04:56:19;;;;;;;2.40;0.63;;;;;;;4.53;78.14;94984.56;5053361;28;20189;-76
2020/12/24 04:58:44;;;;;;;1.90;0.80;;;;;;;4.46;77.71;94986.81;5053075;28;20199;-78
2020/12/24 05:01:17;;;;;;;2.40;0.60;;;;;;;4.41;78.43;94986.38;5049604;28;20184;-76
2020/12/24 05:03:43;;;;;;;3.03;0.60;;;;;;;4.40;78.18;94979.59;5071343;28;20195;-76
2020/12/24 05:06:16;;;;;;;2.53;0.67;;;;;;;4.39;78.55;94982.28;5070172;28;20475;-77
2020/12/24 05:08:50;;;;;;;4.23;0.80;;;;;;;4.35;78.51;94983.50;5054430;28;20269;-76
2020/12/24 05:11:15;;;;;;;2.43;0.87;;;;;;;4.31;78.91;94969.25;5040111;28;20573;-76
2020/12/24 05:13:40;;;;;;;1.93;0.90;;;;;;;4.22;79.22;94963.91;5075116;28;20204;-77
2020/12/24 05:16:15;;;;;;;3.70;0.77;;;;;;;4.20;79.31;94960.66;5075234;28;20204;-76
2020/12/24 05:18:40;;;;;;;1.87;0.73;;;;;;;4.21;78.65;94957.13;5040436;28;20241;-77
2020/12/24 05:21:06;;;;;;;0.93;0.60;;;;;;;4.26;78.45;94954.22;5056163;28;20681;-76
2020/12/24 05:23:31;;;;;;;2.67;0.87;;;;;;;4.19;78.30;94953.88;5056909;28;20170;-76
2020/12/24 05:25:56;;;;;;;2.90;0.90;;;;;;;4.23;77.75;94955.25;5057148;28;20197;-76
2020/12/24 05:28:24;;;;;;;6.17;0.90;;;;;;;4.32;76.36;94950.31;5057085;28;20227;-76
2020/12/24 05:30:50;;;;;;;4.10;0.90;;;;;;;4.30;76.02;94936.78;5039420;28;20227;-76
2020/12/24 05:33:32;;;;;;;2.03;0.87;;;;;;;4.33;75.47;94945.06;5070396;28;20622;-77
2020/12/24 05:36:16;;;;;;;4.30;1.20;;;;;;;4.43;74.49;94945.13;5056863;28;20258;-76
2020/12/24 05:38:42;;;;;;;2.53;0.80;;;;;;;4.40;74.06;94935.09;5056859;28;20259;-77
2020/12/24 05:41:30;;;;;;;2.80;0.80;;;;;;;4.25;75.45;94937.97;5067364;28;20276;-77
2020/12/24 05:43:59;;;;;;;4.43;0.70;;;;;;;4.19;76.42;94937.66;5056877;28;20577;-77
2020/12/24 05:46:26;;;;;;;2.27;0.70;;;;;;;4.19;75.58;94932.50;5074481;28;20201;-77
2020/12/24 05:48:51;;;;;;;1.93;0.80;;;;;;;4.27;75.73;94927.56;5056509;28;20180;-76
2020/12/24 05:51:18;;;;;;;3.50;0.87;;;;;;;4.24;75.19;94926.06;5052845;28;20186;-76
2020/12/24 05:53:45;;;;;;;4.47;0.90;;;;;;;4.35;74.73;94929.50;5056657;28;20715;-77
2020/12/24 05:56:18;;;;;;;3.53;1.13;;;;;;;4.32;75.26;94933.13;5056379;28;20193;-77
2020/12/24 05:58:46;;;;;;;5.27;0.87;;;;;;;4.29;75.43;94927.44;5039607;28;20260;-77
2020/12/24 06:01:13;;;;;;;4.23;1.10;;;;;;;4.29;74.59;94923.09;5053250;28;20687;-76
2020/12/24 06:04:02;;;;;;;3.33;0.93;;;;;;;4.35;75.01;94914.09;5039707;28;20169;-76
2020/12/24 06:06:41;;;;;;;5.27;1.00;;;;;;;4.36;75.02;94915.72;5056377;28;20195;-77
2020/12/24 06:09:13;;;;;;;3.67;1.13;;;;;;;4.27;75.00;94914.72;5056169;28;20169;-77
2020/12/24 06:11:59;;;;;;;4.60;1.20;;;;;;;4.30;75.64;94908.50;5054180;28;20200;-76
2020/12/24 06:14:27;;;;;;;5.27;0.80;;;;;;;4.24;75.97;94909.81;5037246;28;20189;-77
2020/12/24 06:16:54;;;;;;;3.23;1.10;;;;;;;4.27;76.65;94909.56;5056050;28;20183;-77
2020/12/24 06:19:20;;;;;;;5.10;0.70;;;;;;;4.22;76.99;94903.97;5072466;28;20204;-77
2020/12/24 06:21:45;;;;;;;1.83;0.93;;;;;;;4.23;76.91;94898.72;5038670;28;20177;-77
2020/12/24 06:24:11;;;;;;;1.20;0.60;;;;;;;4.24;76.71;94899.53;5054030;28;20675;-77
2020/12/24 06:26:43;;;;;;;3.70;0.70;;;;;;;4.20;77.26;94901.53;5073883;28;20174;-76
2020/12/24 06:29:09;;;;;;;2.37;1.20;;;;;;;4.23;76.92;94898.72;5055611;28;20191;-77
2020/12/24 06:31:39;;;;;;;4.87;0.60;;;;;;;4.19;77.76;94891.38;5056041;28;20173;-76
2020/12/24 06:34:22;;;;;;;4.27;1.40;;;;;;;4.24;77.58;94887.50;5055176;28;20189;-76
2020/12/24 06:36:47;;;;;;;4.00;0.80;;;;;;;4.23;77.50;94897.91;5039369;28;20180;-77
2020/12/24 06:39:13;;;;;;;3.30;1.03;;;;;;;4.26;78.06;94895.09;5038887;28;20181;-77
2020/12/24 06:41:39;;;;;;;1.30;0.80;;;;;;;4.33;78.10;94898.81;5055860;28;20178;-77
2020/12/24 06:44:05;;;;;;;5.33;0.97;;;;;;;4.34;78.46;94899.63;5067311;28;20181;-76
2020/12/24 06:46:54;;;;;;;3.33;1.10;;;;;;;4.29;78.87;94897.41;5054348;28;20640;-77
2020/12/24 06:49:28;;;;;;;2.13;0.70;;;;;;;4.30;78.83;94887.94;5059955;28;20192;-77
2020/12/24 06:51:53;;;;;;;3.03;1.00;;;;;;;4.31;78.51;94889.56;5038929;28;20232;-78
2020/12/24 06:54:20;;;;;;;3.30;1.10;;;;;;;4.28;78.51;94885.50;5053432;28;20242;-77
2020/12/24 06:56:45;;;;;;;3.73;0.90;;;;;;;4.46;76.77;94883.16;5038611;28;20258;-77
2020/12/24 06:59:18;;;;;;;2.17;0.70;;;;;;;4.40;77.68;94876.75;5055361;28;20248;-77
2020/12/24 07:01:59;;;;;;;4.13;1.30;;;;;;;4.39;78.31;94885.41;5038749;28;20308;-77
2020/12/24 07:04:34;;;;;;;2.27;1.10;;;;;;;4.44;77.14;94883.31;5070045;28;20199;-77
2020/12/24 07:07:00;;;;;;;9.70;2.10;;;;;;;4.45;78.22;94887.50;5066874;28;20207;-77
2020/12/24 07:09:25;;;;;;;6.13;1.60;;;;;;;4.38;77.53;94872.69;5072978;28;20573;-77
2020/12/24 07:11:52;;;;;;;4.93;1.00;;;;;;;4.39;78.20;94856.34;5072995;28;20691;-77
2020/12/24 07:14:30;;;;;;;3.20;0.80;;;;;;;4.26;77.92;94862.50;5055345;28;20166;-76
2020/12/24 07:17:06;;;;;;;3.00;1.00;;;;;;;4.24;78.55;94854.09;5052992;28;20181;-76
2020/12/24 07:19:31;;;;;;;5.40;1.33;;;;;;;4.29;78.16;94850.31;5054669;28;20177;-77
2020/12/24 07:21:57;;;;;;;4.10;0.93;;;;;;;4.24;78.66;94853.25;5054980;28;20176;-77
2020/12/24 07:24:27;;;;;;;4.90;0.80;;;;;;;4.15;79.65;94839.44;5072896;28;20205;-77
2020/12/24 07:26:57;;;;;;;3.07;0.80;;;;;;;4.15;78.61;94844.56;5067258;28;20185;-76
2020/12/24 07:29:24;;;;;;;1.80;0.73;;;;;;;4.12;79.77;94839.66;5054402;28;20200;-78
2020/12/24 07:31:51;;;;;;;1.53;0.67;;;;;;;4.11;77.99;94842.38;5054337;28;20204;-76
2020/12/24 07:34:30;;;;;;;4.20;0.97;;;;;;;4.09;79.30;94850.22;5042724;28;20216;-76
2020/12/24 07:36:56;;;;;;;2.20;0.83;;;;;;;4.05;78.85;94856.53;5058854;28;20179;-77
2020/12/24 07:39:21;;;;;;;3.60;1.00;;;;;;;3.98;78.59;94855.41;5053915;28;20177;-78
2020/12/24 07:41:47;;;;;;;2.07;0.80;;;;;;;3.92;79.01;94853.34;5054490;28;20600;-76
2020/12/24 07:44:14;;;;;;;2.63;0.83;;;;;;;3.94;79.67;94862.53;5054519;28;20181;-77
2020/12/24 07:46:39;;;;;;;3.47;1.10;;;;;;;3.89;79.71;94845.88;5054531;28;20390;-76
2020/12/24 07:49:05;;;;;;;2.20;0.50;;;;;;;3.86;79.19;94840.97;5054954;28;20886;-76
2020/12/24 07:51:31;;;;;;;0.80;0.60;;;;;;;3.79;80.02;94842.41;5054542;28;20181;-76
2020/12/24 07:54:12;;;;;;;0.70;0.70;;;;;;;3.82;79.77;94844.75;5054549;28;20522;-76
2020/12/24 07:56:42;;;;;;;3.00;0.60;;;;;;;3.81;79.94;94830.28;5072096;28;20175;-76
2020/12/24 07:59:07;;;;;;;1.10;0.73;;;;;;;3.70;79.71;94847.34;5049610;28;20703;-76
2020/12/24 08:01:33;;;;;;;1.43;0.73;;;;;;;3.74;79.09;94834.28;5054379;28;20227;-76
2020/12/24 08:03:59;;;;;;;2.63;1.20;;;;;;;3.72;79.20;94829.25;5037585;28;20264;-77
2020/12/24 08:06:25;;;;;;;3.40;0.77;;;;;;;3.68;79.70;94827.88;5054157;28;20683;-77
2020/12/24 08:08:51;;;;;;;1.53;0.50;;;;;;;3.68;78.86;94836.38;5049322;28;20181;-76
2020/12/24 08:11:16;;;;;;;1.10;0.50;;;;;;;3.64;79.06;94832.44;5060959;28;20184;-77
2020/12/24 08:13:41;;;;;;;3.63;0.73;;;;;;;3.60;78.82;94838.75;5070084;28;20205;-76
2020/12/24 08:16:11;;;;;;;3.73;0.70;;;;;;;3.65;79.00;94830.69;5071307;28;20553;-76
2020/12/24 08:18:41;;;;;;;1.70;0.40;;;;;;;3.63;78.79;94832.56;5037436;28;20196;-76
2020/12/24 08:21:15;;;;;;;2.10;0.60;;;;;;;3.65;78.82;94841.78;5054265;28;20195;-76
2020/12/24 08:23:45;;;;;;;0.63;0.43;;;;;;;3.64;78.72;94849.59;5033999;28;20630;-76
2020/12/24 08:26:12;;;;;;;2.20;0.70;;;;;;;3.65;79.35;94841.78;5034012;28;20190;-75
2020/12/24 08:28:39;;;;;;;0.93;0.60;;;;;;;3.68;78.75;94844.09;5033639;28;20182;-76
2020/12/24 08:31:10;;;;;;;2.07;0.77;;;;;;;3.68;78.61;94856.09;5027906;28;20316;-76
2020/12/24 08:33:35;;;;;;;0.40;0.40;;;;;;;3.78;78.51;94849.28;5053864;28;20258;-76
2020/12/24 08:36:39;;;;;;;0.60;0.40;;;;;;;3.75;78.38;94846.97;5053746;28;20607;-76
2020/12/24 08:39:06;;;;;;;1.30;0.47;;;;;;;3.76;78.88;94848.59;4993131;28;20621;-76
2020/12/24 08:41:44;;;;;;;2.00;0.77;;;;;;;3.75;79.26;94856.44;4996995;28;20252;-75
2020/12/24 08:44:09;;;;;;;0.80;0.60;;;;;;;3.70;79.58;94862.75;4986080;28;20268;-75
2020/12/24 08:46:35;;;;;;;0.37;0.30;;;;;;;3.77;78.94;94869.97;5006161;28;20274;-77
2020/12/24 08:49:23;;;;;;;1.20;0.40;;;;;;;3.78;79.61;94858.75;4976550;28;20555;-76
2020/12/24 08:51:50;;;;;;;1.70;0.60;;;;;;;3.80;79.29;94862.00;4998917;28;20206;-75
2020/12/24 08:54:15;;;;;;;1.33;0.40;;;;;;;3.83;79.42;94849.75;5001080;28;20179;-76
2020/12/24 08:56:42;;;;;;;0.40;0.30;;;;;;;3.85;79.17;94847.06;4992863;28;20528;-75
2020/12/24 08:59:09;;;;;;;0.90;0.30;;;;;;;3.81;78.67;94848.25;5009177;28;20185;-78
2020/12/24 09:01:42;;;;;;;0.50;0.40;;;;;;;3.84;78.50;94845.44;4989662;28;20199;-78
2020/12/24 09:04:15;;;;;;;1.07;0.50;;;;;;;3.90;78.83;94839.81;5013109;28;20284;-76
2020/12/24 09:06:41;;;;;;;0.30;0.30;;;;;;;3.83;78.97;94843.81;4975482;28;20337;-75
2020/12/24 09:09:06;;;;;;;1.43;0.47;;;;;;;3.94;78.32;94852.25;5008571;28;20330;-75
2020/12/24 09:11:32;;;;;;;1.70;0.50;;;;;;;3.94;78.64;94861.72;4976702;28;20226;-76
2020/12/24 09:13:59;;;;;;;1.57;0.43;;;;;;;3.97;79.40;94862.28;5003718;28;20198;-76
2020/12/24 09:16:24;;;;;;;1.17;0.70;;;;;;;4.03;78.82;94865.31;5068500;28;20225;-75
2020/12/24 09:19:06;;;;;;;2.13;0.43;;;;;;;4.07;79.20;94872.66;5053401;28;20220;-76
2020/12/24 09:21:32;;;;;;;0.50;0.30;;;;;;;4.10;78.90;94872.41;5049758;28;20189;-76
2020/12/24 09:24:08;;;;;;;0.60;0.50;;;;;;;4.24;78.19;94878.97;5037058;28;20183;-76
2020/12/24 09:26:43;;;;;;;0.30;0.30;;;;;;;4.28;77.49;94880.34;5027377;28;20224;-76
2020/12/24 09:29:09;;;;;;;0.97;0.60;;;;;;;4.21;77.58;94877.47;5019989;28;20603;-76
2020/12/24 09:31:34;;;;;;;0.90;0.70;;;;;;;4.22;76.96;94881.66;5071037;28;20186;-76
2020/12/24 09:33:59;;;;;;;1.23;0.53;;;;;;;4.26;77.83;94872.78;5065691;28;20189;-75
2020/12/24 09:36:25;;;;;;;2.83;0.80;;;;;;;4.30;77.63;94875.91;5053492;28;20215;-76
2020/12/24 09:38:50;;;;;;;1.63;0.80;;;;;;;4.44;78.17;94892.78;5053037;28;20553;-75
2020/12/24 09:41:15;;;;;;;2.00;1.33;;;;;;;4.47;77.36;94893.31;5053220;28;20173;-76
2020/12/24 09:43:41;;;;;;;1.50;0.60;;;;;;;4.57;77.16;94895.94;5052176;28;20259;-76
2020/12/24 09:46:06;;;;;;;1.17;0.87;;;;;;;4.63;77.71;94899.78;5050409;28;20205;-76
2020/12/24 09:48:31;;;;;;;2.27;0.90;;;;;;;4.68;77.81;94902.75;5035658;28;20197;-76
2020/12/24 09:50:59;;;;;;;1.90;0.80;;;;;;;4.66;77.21;94904.66;5069910;28;20184;-76
2020/12/24 09:53:24;;;;;;;2.20;0.87;;;;;;;4.70;77.16;94909.44;5036241;28;20205;-76
2020/12/24 09:55:49;;;;;;;2.67;0.70;;;;;;;4.72;76.82;94915.25;5061638;28;20209;-76
2020/12/24 09:58:14;;;;;;;1.60;0.50;;;;;;;4.74;76.26;94917.69;5053602;28;20649;-76
2020/12/24 10:00:40;;;;;;;1.53;0.67;;;;;;;4.73;76.24;94916.88;5056285;28;20180;-76
2020/12/24 10:03:05;;;;;;;1.03;0.50;;;;;;;4.76;76.63;94924.34;5073727;28;20190;-77
2020/12/24 10:05:30;;;;;;;0.73;0.60;;;;;;;4.76;77.45;94921.75;5039843;28;20271;-76
2020/12/24 10:07:58;;;;;;;0.67;0.60;;;;;;;4.71;77.05;94925.69;5071584;28;20596;-76
2020/12/24 10:10:23;;;;;;;0.60;0.50;;;;;;;4.70;77.35;94927.44;5073577;28;20181;-75
2020/12/24 10:12:48;;;;;;;1.77;0.40;;;;;;;4.78;76.79;94916.50;5056135;28;20193;-76
2020/12/24 10:15:14;;;;;;;0.50;0.50;;;;;;;4.70;76.67;94921.47;5056067;28;20201;-76
2020/12/24 10:17:39;;;;;;;1.70;0.90;;;;;;;4.69;77.22;94923.25;5054281;28;20216;-76
2020/12/24 10:20:04;;;;;;;7.37;2.90;;;;;;;4.68;77.65;94919.03;5054820;28;20192;-76
2020/12/24 10:22:30;;;;;;;0.50;0.50;;;;;;;4.63;77.17;94904.91;5055927;28;20234;-78
2020/12/24 10:24:55;;;;;;;0.70;0.70;;;;;;;4.58;77.28;94913.00;5038926;28;20207;-77
2020/12/24 10:27:20;;;;;;;0.80;0.40;;;;;;;4.52;76.57;94898.09;5036089;28;20196;-76
2020/12/24 10:29:46;;;;;;;0.80;0.60;;;;;;;4.54;76.63;94904.75;5072007;28;20200;-77
2020/12/24 10:32:11;;;;;;;1.47;0.50;;;;;;;4.68;76.87;94903.59;5039279;28;20197;-76
2020/12/24 10:34:36;;;;;;;1.43;0.40;;;;;;;4.82;76.61;94903.25;5055931;28;20193;-76
2020/12/24 10:37:02;;;;;;;0.90;0.73;;;;;;;4.82;77.51;94892.97;5055883;28;20247;-76
2020/12/24 10:39:28;;;;;;;0.77;0.50;;;;;;;4.76;76.88;94906.34;5053866;28;20273;-76
2020/12/24 10:41:53;;;;;;;1.50;0.60;;;;;;;4.68;77.00;94903.59;5072197;28;20286;-76
2020/12/24 10:44:19;;;;;;;1.33;1.00;;;;;;;4.87;77.40;94904.66;5039120;28;20184;-77
2020/12/24 10:46:44;;;;;;;1.40;0.70;;;;;;;4.88;77.41;94894.22;5073699;28;20231;-76
2020/12/24 10:49:10;;;;;;;1.77;1.00;;;;;;;5.01;76.74;94906.84;5068638;28;20188;-76
2020/12/24 10:51:35;;;;;;;1.67;1.13;;;;;;;5.01;76.84;94904.28;5047420;28;20188;-77
2020/12/24 10:54:01;;;;;;;2.13;1.20;;;;;;;4.92;77.11;94889.63;5039015;28;20179;-78
2020/12/24 10:56:26;;;;;;;0.73;0.73;;;;;;;4.96;77.65;94886.66;5073336;28;20229;-77
2020/12/24 10:58:51;;;;;;;2.43;1.50;;;;;;;4.98;77.15;94859.03;5055257;28;20184;-77
2020/12/24 11:01:18;;;;;;;0.67;0.50;;;;;;;4.97;76.55;94849.69;5047650;28;20181;-77
2020/12/24 11:03:44;;;;;;;1.20;0.80;;;;;;;5.08;75.87;94852.16;5055474;28;20184;-78
2020/12/24 11:06:21;;;;;;;2.20;1.23;;;;;;;5.22;76.35;94842.47;5038085;28;20216;-78
2020/12/24 11:08:48;;;;;;;0.80;0.60;;;;;;;5.19;75.33;94838.38;5028281;28;20514;-77
2020/12/24 11:11:13;;;;;;;2.20;0.70;;;;;;;5.22;75.24;94845.84;5067849;28;20189;-77
2020/12/24 11:13:40;;;;;;;0.80;0.70;;;;;;;5.25;74.87;94848.16;5060982;28;20216;-77
2020/12/24 11:16:06;;;;;;;3.53;1.80;;;;;;;5.21;74.14;94841.66;5060724;28;20198;-78
2020/12/24 11:18:32;;;;;;;1.17;0.60;;;;;;;5.23;74.34;94860.34;5018441;28;20309;-77
2020/12/24 11:20:57;;;;;;;0.70;0.30;;;;;;;5.20;74.93;94852.06;5019759;28;20658;-77
2020/12/24 11:23:22;;;;;;;5.30;0.50;;;;;;;5.25;74.78;94861.03;5055114;28;20625;-77
2020/12/24 11:25:48;;;;;;;0.70;0.40;;;;;;;5.23;74.51;94846.66;5054634;28;20205;-78
2020/12/24 11:28:13;;;;;;;2.10;0.50;;;;;;;5.31;74.63;94860.50;5055088;28;20169;-77
2020/12/24 11:30:39;;;;;;;1.03;0.57;;;;;;;5.34;74.04;94880.81;5038004;28;20185;-78
2020/12/24 11:33:04;;;;;;;0.80;0.60;;;;;;;5.28;74.06;94854.78;5029963;28;20567;-78
2020/12/24 11:35:29;;;;;;;0.87;0.60;;;;;;;5.17;74.23;94865.19;5050570;28;20244;-77
2020/12/24 11:37:55;;;;;;;0.60;0.53;;;;;;;5.05;74.74;94854.19;5050565;28;20637;-77
2020/12/24 11:40:20;;;;;;;0.87;0.73;;;;;;;5.01;75.38;94865.69;5069426;28;20185;-77